Time;durP1;ratioP1;P1;durP2;ratioP2;P2;SDS_P1;SDS_P2;PMS_P1;PMS_P2;Temp;Humidity;BMP_temperature;BMP_pressure;BME280_temperature;BME280_humidity;BME280_pressure;Samples;Min_cycle;Max_cycle;Signal;HPM_P1;HPM_P2
2023/01/24 00:00:38;;;;;;;82.72;23.77;;;;;;;-1.52;100.00;93918.66;2081814;28;20594;-83
2023/01/24 00:01:43;;;;;;;61.63;23.45;;;;;;;-1.47;100.00;93912.47;2082259;28;20025;-85
2023/01/24 00:02:44;;;;;;;80.82;21.00;;;;;;;-1.28;100.00;93912.00;2098199;28;20057;-84
2023/01/24 00:03:46;;;;;;;61.63;22.60;;;;;;;-1.50;100.00;93917.56;2102488;28;20036;-85
2023/01/24 00:04:47;;;;;;;57.22;24.33;;;;;;;-1.54;100.00;93918.22;2090075;28;20048;-85
2023/01/24 00:05:49;;;;;;;66.32;21.70;;;;;;;-1.39;100.00;93909.00;2094251;28;20040;-83
2023/01/24 00:06:50;;;;;;;70.78;24.20;;;;;;;-1.29;100.00;93918.34;2090336;28;20025;-84
2023/01/24 00:07:51;;;;;;;58.55;24.25;;;;;;;-1.41;100.00;93924.28;2089558;28;20036;-82
2023/01/24 00:08:53;;;;;;;96.68;20.92;;;;;;;-1.15;100.00;93916.22;2089871;28;20147;-84
2023/01/24 00:09:54;;;;;;;55.60;23.55;;;;;;;-1.42;100.00;93919.38;2098104;28;20474;-84
2023/01/24 00:11:04;;;;;;;62.60;22.95;;;;;;;-1.41;100.00;93915.66;2094903;28;20043;-85
2023/01/24 00:12:05;;;;;;;52.38;24.33;;;;;;;-1.52;100.00;93926.53;2089938;28;20640;-83
2023/01/24 00:13:09;;;;;;;57.05;24.13;;;;;;;-1.53;100.00;93921.63;2090076;28;20486;-83
2023/01/24 00:14:10;;;;;;;51.47;22.90;;;;;;;-1.60;100.00;93921.34;2106131;28;20456;-84
2023/01/24 00:15:11;;;;;;;59.42;24.55;;;;;;;-1.45;100.00;93923.38;2114854;28;20034;-83
2023/01/24 00:16:18;;;;;;;72.22;23.95;;;;;;;-1.46;100.00;93921.09;2100227;28;20020;-83
2023/01/24 00:17:19;;;;;;;67.88;24.33;;;;;;;-1.40;100.00;93925.84;2091063;28;20067;-82
2023/01/24 00:18:20;;;;;;;66.25;24.17;;;;;;;-1.52;100.00;93926.53;2089890;28;20025;-85
2023/01/24 00:19:21;;;;;;;57.65;23.58;;;;;;;-1.49;100.00;93924.34;2089969;28;20021;-85
2023/01/24 00:20:22;;;;;;;54.90;23.25;;;;;;;-1.49;100.00;93924.34;2086546;28;20056;-84
2023/01/24 00:21:23;;;;;;;64.20;23.98;;;;;;;-1.53;100.00;93921.63;2089899;28;20436;-84
2023/01/24 00:22:24;;;;;;;68.07;23.35;;;;;;;-1.41;100.00;93929.53;2089804;28;20021;-84
2023/01/24 00:23:25;;;;;;;97.57;24.48;;;;;;;-1.40;100.00;93930.31;2097921;28;20036;-83
2023/01/24 00:24:28;;;;;;;87.55;24.13;;;;;;;-1.06;100.00;93927.41;2089611;28;20478;-84
2023/01/24 00:25:29;;;;;;;53.00;23.45;;;;;;;-1.31;100.00;93928.41;2091934;28;20111;-85
2023/01/24 00:26:30;;;;;;;74.53;24.10;;;;;;;-1.26;100.00;93928.19;2097810;28;20063;-84
2023/01/24 00:27:31;;;;;;;60.53;22.15;;;;;;;-1.21;100.00;93933.25;2089836;28;20028;-84
2023/01/24 00:28:33;;;;;;;53.03;23.48;;;;;;;-1.24;100.00;93933.88;2091838;28;20025;-84
2023/01/24 00:29:34;;;;;;;54.55;23.90;;;;;;;-1.27;100.00;93932.69;2098263;28;20099;-84
2023/01/24 00:30:35;;;;;;;80.63;24.45;;;;;;;-1.55;100.00;93932.41;2089877;28;20025;-83
2023/01/24 00:31:37;;;;;;;54.75;23.50;;;;;;;-1.47;100.00;93938.69;2089499;28;20064;-85
2023/01/24 00:32:39;;;;;;;56.33;23.25;;;;;;;-1.49;100.00;93937.44;2090066;28;20429;-85
2023/01/24 00:33:39;;;;;;;73.50;23.88;;;;;;;-1.49;100.00;93932.22;2086288;28;20025;-85
2023/01/24 00:34:40;;;;;;;62.97;22.95;;;;;;;-1.38;100.00;93930.75;2081279;28;20022;-84
2023/01/24 00:35:41;;;;;;;57.83;22.27;;;;;;;-1.44;100.00;93926.81;2084521;28;20503;-83
2023/01/24 00:36:42;;;;;;;51.83;23.92;;;;;;;-1.47;100.00;93930.81;2089610;28;20380;-83
2023/01/24 00:37:43;;;;;;;56.78;22.73;;;;;;;-1.49;100.00;93924.34;2089393;28;20063;-81
2023/01/24 00:38:44;;;;;;;75.75;23.23;;;;;;;-1.39;100.00;93921.34;2081265;28;20033;-83
2023/01/24 00:39:47;;;;;;;50.50;23.92;;;;;;;-1.42;100.00;93928.00;2090109;28;20108;-83
2023/01/24 00:40:49;;;;;;;53.95;22.50;;;;;;;-1.39;100.00;93934.47;2082253;28;20033;-82
2023/01/24 00:41:50;;;;;;;53.80;21.58;;;;;;;-1.16;100.00;93927.81;2081548;28;20653;-84
2023/01/24 00:42:51;;;;;;;54.38;22.70;;;;;;;-1.41;100.00;93932.16;2081515;28;20025;-84
2023/01/24 00:43:52;;;;;;;54.05;22.85;;;;;;;-1.43;100.00;93923.84;2081805;28;20108;-83
2023/01/24 00:44:54;;;;;;;53.25;22.52;;;;;;;-1.43;100.00;93929.09;2081616;28;20112;-83
2023/01/24 00:45:56;;;;;;;58.28;23.30;;;;;;;-1.41;100.00;93924.28;2086635;28;20052;-83
2023/01/24 00:46:57;;;;;;;61.92;24.15;;;;;;;-1.35;100.00;93932.75;2090237;28;20027;-82
2023/01/24 00:47:58;;;;;;;59.90;20.80;;;;;;;-1.16;100.00;93927.81;2081566;28;20490;-82
2023/01/24 00:49:00;;;;;;;49.28;22.02;;;;;;;-1.31;100.00;93931.03;2081426;28;20018;-84
2023/01/24 00:50:01;;;;;;;58.47;21.35;;;;;;;-1.35;100.00;93930.13;2085439;28;20032;-83
2023/01/24 00:51:02;;;;;;;58.97;24.10;;;;;;;-1.37;100.00;93929.66;2083301;28;20025;-83
2023/01/24 00:52:03;;;;;;;66.15;22.75;;;;;;;-1.40;100.00;93938.94;2089523;28;20017;-83
2023/01/24 00:53:04;;;;;;;60.70;24.17;;;;;;;-1.46;100.00;93934.97;2081722;28;20029;-84
2023/01/24 00:54:07;;;;;;;50.60;22.80;;;;;;;-1.54;100.00;93933.97;2096419;28;20032;-83
2023/01/24 00:55:08;;;;;;;181.18;23.25;;;;;;;-1.57;100.00;93933.81;2095286;28;20793;-83
2023/01/24 00:56:09;;;;;;;63.63;23.38;;;;;;;-1.53;100.00;93932.88;2097804;28;20024;-83
2023/01/24 00:57:10;;;;;;;56.60;22.70;;;;;;;-1.48;100.00;93941.63;2089462;28;20111;-82
2023/01/24 00:58:12;;;;;;;56.03;23.13;;;;;;;-1.49;100.00;93940.88;2089066;28;20428;-82
2023/01/24 00:59:13;;;;;;;66.45;23.92;;;;;;;-1.41;100.00;93931.38;2089069;28;20028;-82
2023/01/24 01:00:14;;;;;;;67.25;23.73;;;;;;;-1.47;100.00;93940.53;2081740;28;20030;-82
2023/01/24 01:01:15;;;;;;;59.88;23.38;;;;;;;-1.50;100.00;93944.56;2081236;28;20029;-82
2023/01/24 01:02:16;;;;;;;103.75;23.83;;;;;;;-1.58;100.00;93948.00;2089464;28;20028;-83
2023/01/24 01:03:20;;;;;;;84.28;23.30;;;;;;;-1.47;100.00;93937.91;2097683;28;20039;-84
2023/01/24 01:04:21;;;;;;;80.15;23.45;;;;;;;-1.43;100.00;93933.56;2098001;28;20383;-83
2023/01/24 01:05:23;;;;;;;75.90;22.70;;;;;;;-1.45;100.00;93935.72;2097710;28;20051;-82
2023/01/24 01:06:25;;;;;;;63.20;22.95;;;;;;;-1.53;100.00;93945.22;2089797;28;20433;-83
2023/01/24 01:07:25;;;;;;;171.07;25.13;;;;;;;-1.42;100.00;93941.09;2081552;28;20058;-84
2023/01/24 01:08:26;;;;;;;87.97;23.38;;;;;;;-1.44;100.00;93943.28;2081125;28;20021;-83
2023/01/24 01:09:28;;;;;;;82.93;24.58;;;;;;;-1.49;100.00;93940.06;2083542;28;20426;-80
2023/01/24 01:10:28;;;;;;;73.35;24.30;;;;;;;-1.53;100.00;93938.13;2085876;28;20021;-83
2023/01/24 01:11:29;;;;;;;76.70;23.85;;;;;;;-1.43;100.00;93938.81;2092026;28;20025;-82
2023/01/24 01:12:30;;;;;;;73.53;26.10;;;;;;;-1.44;100.00;93938.06;2090338;28;20017;-84
2023/01/24 01:13:32;;;;;;;89.45;22.58;;;;;;;-1.44;100.00;93940.69;2082112;28;20427;-82
2023/01/24 01:14:33;;;;;;;72.25;23.02;;;;;;;-1.34;100.00;93935.03;2090142;28;20021;-84
2023/01/24 01:15:34;;;;;;;75.70;22.70;;;;;;;-1.43;100.00;93944.81;2088320;28;20215;-83
2023/01/24 01:16:38;;;;;;;56.50;23.83;;;;;;;-1.44;100.00;93945.16;2082766;28;20033;-83
2023/01/24 01:17:41;;;;;;;63.72;23.33;;;;;;;-1.49;100.00;93937.44;2081708;28;20025;-83
2023/01/24 01:18:42;;;;;;;54.95;22.17;;;;;;;-1.27;100.00;93932.69;2073148;28;20654;-84
2023/01/24 01:19:43;;;;;;;91.70;22.67;;;;;;;-1.45;100.00;93948.84;2076891;28;20025;-83
2023/01/24 01:20:50;;;;;;;62.33;22.45;;;;;;;-1.43;100.00;93944.81;2080867;28;20495;-84
2023/01/24 01:21:51;;;;;;;67.72;21.13;;;;;;;-1.41;100.00;93944.50;2083020;28;20025;-83
2023/01/24 01:22:52;;;;;;;58.50;24.17;;;;;;;-1.50;100.00;93951.66;2089238;28;20315;-82
2023/01/24 01:23:53;;;;;;;85.10;24.48;;;;;;;-1.50;100.00;93941.94;2089269;28;20025;-83
2023/01/24 01:25:02;;;;;;;111.60;22.63;;;;;;;-1.32;100.00;93943.38;2081027;28;20022;-82
2023/01/24 01:26:06;;;;;;;73.03;22.23;;;;;;;-1.30;100.00;93948.28;2090296;28;20036;-83
2023/01/24 01:27:07;;;;;;;59.30;22.52;;;;;;;-1.33;100.00;93949.69;2081400;28;20025;-83
2023/01/24 01:28:08;;;;;;;66.10;23.20;;;;;;;-1.44;100.00;93950.41;2081174;28;20017;-82
2023/01/24 01:29:09;;;;;;;73.47;22.70;;;;;;;-1.55;100.00;93960.47;2102050;28;20035;-84
2023/01/24 01:30:10;;;;;;;72.60;22.30;;;;;;;-1.54;100.00;93954.13;2098270;28;20024;-84
2023/01/24 01:31:15;;;;;;;78.18;23.88;;;;;;;-1.41;100.00;93950.50;2081350;28;20501;-82
2023/01/24 01:32:15;;;;;;;58.60;22.98;;;;;;;-1.46;100.00;93955.19;2097686;28;20031;-83
2023/01/24 01:33:16;;;;;;;129.25;22.98;;;;;;;-1.52;100.00;93955.38;2081058;28;20025;-83
2023/01/24 01:34:17;;;;;;;63.60;22.77;;;;;;;-1.54;100.00;93951.50;2072731;28;20026;-83
2023/01/24 01:35:22;;;;;;;59.45;22.58;;;;;;;-1.60;100.00;93947.56;2089826;28;20533;-83
2023/01/24 01:36:24;;;;;;;50.35;21.92;;;;;;;-1.53;100.00;93950.44;2100644;28;20020;-83
2023/01/24 01:37:25;;;;;;;83.15;22.98;;;;;;;-1.53;100.00;93953.06;2080879;28;20056;-83
2023/01/24 01:38:27;;;;;;;52.60;22.60;;;;;;;-1.55;100.00;93945.50;2089371;28;20060;-83
2023/01/24 01:39:28;;;;;;;85.10;23.90;;;;;;;-1.48;100.00;93945.03;2090918;28;20043;-84
2023/01/24 01:40:29;;;;;;;68.70;22.65;;;;;;;-1.51;100.00;93950.88;2097614;28;20023;-83
2023/01/24 01:41:31;;;;;;;57.67;22.67;;;;;;;-1.46;100.00;93947.31;2105971;28;20020;-83
2023/01/24 01:42:52;;;;;;;84.82;22.40;;;;;;;-1.38;100.00;93946.50;2105839;28;20039;-82
2023/01/24 01:45:31;;;;;;;54.22;21.15;;;;;;;-1.42;100.00;93950.84;2108340;28;20023;-83
2023/01/24 01:46:43;;;;;;;55.88;20.40;;;;;;;-1.38;100.00;93947.25;2094789;28;20539;-82
2023/01/24 01:47:44;;;;;;;53.70;21.55;;;;;;;-1.35;100.00;93958.97;2090034;28;20137;-80
2023/01/24 01:48:50;;;;;;;55.13;21.08;;;;;;;-1.22;100.00;93954.56;2094279;28;20505;-81
2023/01/24 01:50:00;;;;;;;48.25;21.58;;;;;;;-1.23;100.00;93953.00;2087275;28;20135;-82
2023/01/24 01:51:16;;;;;;;45.30;20.27;;;;;;;-1.25;100.00;93955.97;2088884;28;20513;-83
2023/01/24 01:52:19;;;;;;;55.03;20.63;;;;;;;-1.35;100.00;93961.59;2084901;28;20403;-83
2023/01/24 01:53:23;;;;;;;47.70;22.40;;;;;;;-1.39;100.00;93952.81;2081254;28;20032;-83
2023/01/24 01:54:29;;;;;;;53.72;22.20;;;;;;;-1.38;100.00;93951.72;2084545;28;20467;-82
2023/01/24 01:55:35;;;;;;;54.92;21.40;;;;;;;-1.40;100.00;93964.41;2087063;28;20059;-83
2023/01/24 01:56:42;;;;;;;51.70;20.92;;;;;;;-1.43;100.00;93950.06;2080189;28;20029;-82
2023/01/24 01:57:45;;;;;;;64.55;21.58;;;;;;;-1.50;100.00;93960.28;2076119;28;20495;-84
2023/01/24 01:58:46;;;;;;;49.10;20.90;;;;;;;-1.15;100.00;93950.31;2088961;28;20040;-83
2023/01/24 01:59:53;;;;;;;57.45;22.50;;;;;;;-1.37;100.00;93953.25;2086532;28;20162;-84
2023/01/24 02:00:54;;;;;;;54.60;21.60;;;;;;;-1.30;100.00;93954.28;2074141;28;20049;-81
2023/01/24 02:01:59;;;;;;;47.15;21.08;;;;;;;-1.38;100.00;93946.50;2087016;28;20139;-83
2023/01/24 02:04:35;;;;;;;52.70;21.20;;;;;;;-1.31;100.00;93955.38;2098000;28;20085;-82
2023/01/24 02:05:36;;;;;;;68.38;20.83;;;;;;;-1.30;100.00;93956.91;2095907;28;20834;-80
2023/01/24 02:06:43;;;;;;;64.35;20.58;;;;;;;-1.29;100.00;93955.81;2089120;28;20036;-82
2023/01/24 02:07:50;;;;;;;80.88;20.42;;;;;;;-1.27;100.00;93952.91;2090079;28;20021;-82
2023/01/24 02:08:54;;;;;;;70.95;21.02;;;;;;;-1.32;100.00;93955.69;2099769;28;20020;-81
2023/01/24 02:09:57;;;;;;;47.15;20.58;;;;;;;-1.45;100.00;93946.22;2095155;28;20047;-83
2023/01/24 02:12:30;;;;;;;58.95;20.73;;;;;;;-1.43;100.00;93950.06;2100209;28;20425;-83
2023/01/24 02:13:35;;;;;;;49.10;21.33;;;;;;;-1.41;100.00;93953.13;2090462;28;20791;-83
2023/01/24 02:16:02;;;;;;;57.58;20.65;;;;;;;-1.42;100.00;93956.06;2097331;28;20038;-82
2023/01/24 02:29:09;;;;;;;116.35;27.48;;;;;;;-1.42;100.00;93946.34;2623981;21;20510;-82
2023/01/24 02:30:11;;;;;;;75.13;22.63;;;;;;;-1.50;100.00;93949.78;2601859;22;20011;-80
2023/01/24 02:31:12;;;;;;;62.53;22.67;;;;;;;-1.39;100.00;93950.97;2572945;23;20004;-83
2023/01/24 02:32:14;;;;;;;69.97;22.52;;;;;;;-1.35;100.00;93956.34;2573089;23;20015;-83
2023/01/24 02:33:18;;;;;;;71.13;22.17;;;;;;;-1.43;100.00;93951.94;2561344;23;20063;-82
2023/01/24 02:34:20;;;;;;;54.42;21.85;;;;;;;-1.38;100.00;93947.25;2573525;23;20002;-82
2023/01/24 02:35:32;;;;;;;48.25;21.35;;;;;;;-1.46;100.00;93955.94;2572931;23;20036;-82
2023/01/24 02:36:37;;;;;;;95.53;21.13;;;;;;;-1.45;100.00;93952.22;2565136;23;20004;-82
2023/01/24 02:37:38;;;;;;;51.47;19.80;;;;;;;-1.50;100.00;93949.03;2562041;23;20351;-83
2023/01/24 02:38:42;;;;;;;127.63;21.15;;;;;;;-1.44;100.00;93948.53;2560609;23;20032;-82
2023/01/24 02:40:01;;;;;;;58.05;19.95;;;;;;;-1.51;100.00;93950.88;2574756;22;20005;-82
2023/01/24 02:41:06;;;;;;;58.13;20.63;;;;;;;-1.46;100.00;93944.69;2585391;23;20158;-82
2023/01/24 02:42:11;;;;;;;50.58;19.83;;;;;;;-1.47;100.00;93946.53;2574358;22;20387;-84
2023/01/24 02:43:14;;;;;;;93.75;21.52;;;;;;;-1.44;100.00;93951.16;2599316;22;20006;-83
2023/01/24 02:44:24;;;;;;;86.32;19.80;;;;;;;-1.35;100.00;93945.84;2585444;23;20004;-82
2023/01/24 02:45:28;;;;;;;177.00;21.55;;;;;;;-1.45;100.00;93952.22;2577205;22;20023;-83
2023/01/24 02:46:36;;;;;;;69.95;21.25;;;;;;;-1.60;100.00;93958.81;2586870;22;20087;-82
2023/01/24 02:47:44;;;;;;;53.10;19.83;;;;;;;-1.60;100.00;93950.94;2573527;23;20343;-82
2023/01/24 02:48:45;;;;;;;57.55;19.65;;;;;;;-1.57;100.00;93955.56;2563198;23;20264;-82
2023/01/24 02:49:46;;;;;;;54.10;19.08;;;;;;;-1.43;100.00;93949.31;2585548;23;20389;-83
2023/01/24 02:53:40;;;;;;;46.20;18.05;;;;;;;-1.42;100.00;93953.44;2602479;22;20662;-82
2023/01/24 02:54:41;;;;;;;59.25;20.02;;;;;;;-1.50;100.00;93954.28;2585286;23;20027;-83
2023/01/24 02:58:21;;;;;;;50.08;18.48;;;;;;;-1.36;100.00;93958.22;2589057;22;20012;-82
2023/01/24 02:59:22;;;;;;;74.43;20.67;;;;;;;-1.41;100.00;93952.34;2585339;23;20004;-85
2023/01/24 03:00:24;;;;;;;73.47;21.08;;;;;;;-1.48;100.00;93954.75;2585434;23;20015;-83
2023/01/24 03:01:25;;;;;;;215.35;23.98;;;;;;;-1.50;100.00;93960.28;2572583;23;20015;-83
2023/01/24 03:02:26;;;;;;;64.55;19.33;;;;;;;-1.33;100.00;93947.06;2573018;23;20014;-81
2023/01/24 03:03:27;;;;;;;58.88;19.27;;;;;;;-1.45;100.00;93957.47;2585966;22;20008;-83
2023/01/24 03:04:28;;;;;;;50.35;19.00;;;;;;;-1.56;100.00;93956.31;2573160;23;20423;-85
2023/01/24 03:05:39;;;;;;;57.95;19.63;;;;;;;-1.53;100.00;93959.09;2573180;23;20055;-82
2023/01/24 03:06:40;;;;;;;55.65;19.50;;;;;;;-1.41;100.00;93962.84;2575189;23;20004;-83
2023/01/24 03:07:46;;;;;;;61.65;19.48;;;;;;;-1.59;100.00;93954.31;2573157;22;20038;-85
2023/01/24 03:08:47;;;;;;;68.18;18.23;;;;;;;-1.60;100.00;93958.81;2585324;23;20035;-82
2023/01/24 03:09:50;;;;;;;61.22;19.58;;;;;;;-1.58;100.00;93955.84;2585728;23;20000;-83
2023/01/24 03:10:51;;;;;;;56.80;20.50;;;;;;;-1.61;100.00;93962.53;2561140;23;20434;-82
2023/01/24 03:34:48;;;;;;;38.75;17.50;;;;;;;-1.44;100.00;93974.00;2599375;22;20008;-83
2023/01/24 03:35:53;;;;;;;75.22;16.20;;;;;;;-1.40;100.00;93973.03;2582498;23;20004;-82
2023/01/24 03:36:54;;;;;;;49.40;17.63;;;;;;;-1.39;100.00;93971.19;2571501;22;20449;-84
2023/01/24 03:40:35;;;;;;;79.88;17.40;;;;;;;-1.49;100.00;93977.56;2594973;22;20057;-82
2023/01/24 03:41:36;;;;;;;62.55;16.45;;;;;;;-1.40;100.00;93983.53;2569831;23;20009;-85
2023/01/24 03:42:46;;;;;;;71.72;17.88;;;;;;;-1.48;100.00;93984.34;2557713;23;20016;-85
2023/01/24 03:43:49;;;;;;;47.00;17.30;;;;;;;-1.52;100.00;93984.19;2571889;23;20011;-85
2023/01/24 03:44:50;;;;;;;61.65;16.98;;;;;;;-1.61;100.00;93980.09;2582937;22;20314;-82
2023/01/24 03:45:53;;;;;;;80.10;18.80;;;;;;;-1.62;100.00;93981.19;2569657;23;20012;-82
2023/01/24 03:46:55;;;;;;;57.80;17.40;;;;;;;-1.57;100.00;93978.38;2558960;23;20004;-82
2023/01/24 03:48:01;;;;;;;56.38;17.42;;;;;;;-1.40;100.00;93980.91;2557971;23;20008;-82
2023/01/24 03:49:02;;;;;;;68.38;16.42;;;;;;;-1.44;100.00;93979.22;2559442;23;20063;-83
2023/01/24 03:52:43;;;;;;;39.72;15.57;;;;;;;-1.57;100.00;93983.63;2585607;22;20031;-83
2023/01/24 03:53:45;;;;;;;68.63;14.68;;;;;;;-1.58;100.00;93982.06;2569645;23;20019;-85
2023/01/24 03:54:45;;;;;;;75.55;17.05;;;;;;;-1.55;100.00;93990.06;2569802;23;20024;-84
2023/01/24 03:55:50;;;;;;;100.55;17.83;;;;;;;-1.59;100.00;93991.03;2582081;22;20011;-85
2023/01/24 03:56:51;;;;;;;65.55;16.08;;;;;;;-1.44;100.00;93985.25;2570268;23;20577;-84
2023/01/24 03:57:52;;;;;;;101.00;17.02;;;;;;;-1.39;100.00;93989.53;2569324;23;20509;-83
2023/01/24 03:58:53;;;;;;;121.28;18.65;;;;;;;-1.53;100.00;93979.28;2582199;23;20004;-86
2023/01/24 04:00:04;;;;;;;74.13;16.00;;;;;;;-1.40;100.00;93988.78;2582101;23;20011;-86
2023/01/24 04:01:06;;;;;;;70.45;16.95;;;;;;;-1.59;100.00;93988.41;2571280;23;20416;-86
2023/01/24 04:02:07;;;;;;;59.35;16.95;;;;;;;-1.55;100.00;93984.84;2557438;23;20455;-83
2023/01/24 04:03:09;;;;;;;87.25;16.27;;;;;;;-1.38;100.00;93983.19;2569787;22;20008;-85
2023/01/24 04:04:11;;;;;;;70.28;16.30;;;;;;;-1.54;100.00;93983.75;2569446;23;20008;-83
2023/01/24 04:05:12;;;;;;;62.28;16.13;;;;;;;-1.60;100.00;93984.25;2570366;22;20080;-85
2023/01/24 04:06:13;;;;;;;55.03;16.27;;;;;;;-1.63;100.00;93992.75;2569686;23;20000;-85
2023/01/24 04:07:14;;;;;;;56.75;17.13;;;;;;;-1.58;100.00;93989.94;2569792;22;20004;-82
2023/01/24 04:08:16;;;;;;;38.38;16.33;;;;;;;-1.63;100.00;93990.88;2594678;22;20007;-83
2023/01/24 04:09:19;;;;;;;76.50;17.80;;;;;;;-1.58;100.00;93984.69;2569909;23;20008;-82
2023/01/24 04:10:20;;;;;;;46.38;15.68;;;;;;;-1.48;100.00;93989.59;2570030;23;20035;-82
2023/01/24 04:11:21;;;;;;;40.90;15.90;;;;;;;-1.56;100.00;93985.91;2569692;22;20012;-83
2023/01/24 04:12:22;;;;;;;45.55;15.75;;;;;;;-1.55;100.00;93984.06;2569686;23;20047;-82
2023/01/24 04:13:24;;;;;;;63.20;16.70;;;;;;;-1.54;100.00;93983.75;2557095;23;20015;-82
2023/01/24 04:14:25;;;;;;;43.03;16.25;;;;;;;-1.60;100.00;93981.63;2570109;22;20088;-82
2023/01/24 04:15:32;;;;;;;48.40;16.60;;;;;;;-1.52;100.00;93986.81;2582277;23;20081;-80
2023/01/24 04:16:33;;;;;;;38.65;16.08;;;;;;;-1.47;100.00;93983.25;2559986;23;20012;-83
2023/01/24 04:17:35;;;;;;;49.28;17.35;;;;;;;-1.43;100.00;93981.53;2557883;23;20017;-82
2023/01/24 04:18:36;;;;;;;69.70;16.55;;;;;;;-1.44;100.00;93984.47;2570055;23;20048;-82
2023/01/24 04:19:37;;;;;;;42.63;16.45;;;;;;;-1.29;100.00;93981.28;2557667;23;20096;-83
2023/01/24 04:20:40;;;;;;;48.92;16.08;;;;;;;-1.44;100.00;93982.63;2570028;23;20338;-81
2023/01/24 04:21:41;;;;;;;36.00;15.60;;;;;;;-1.56;100.00;93985.91;2570346;23;20019;-83
2023/01/24 04:22:42;;;;;;;41.85;17.15;;;;;;;-1.52;100.00;93984.19;2582520;22;20461;-81
2023/01/24 04:23:43;;;;;;;32.90;15.48;;;;;;;-1.44;100.00;93984.47;2582319;22;20386;-82
2023/01/24 04:24:46;;;;;;;40.63;16.02;;;;;;;-1.50;100.00;93983.09;2582132;22;20078;-83
2023/01/24 04:25:54;;;;;;;37.08;16.58;;;;;;;-1.45;100.00;93981.06;2570256;23;20020;-82
2023/01/24 04:26:55;;;;;;;32.95;15.60;;;;;;;-1.38;100.00;93993.69;2571459;23;20015;-82
2023/01/24 04:27:56;;;;;;;42.78;15.77;;;;;;;-1.38;100.00;93993.69;2570005;23;20415;-82
2023/01/24 04:28:57;;;;;;;34.72;15.93;;;;;;;-1.44;100.00;93998.34;2569845;22;20016;-83
2023/01/24 04:30:01;;;;;;;36.75;16.73;;;;;;;-1.41;100.00;93991.69;2569930;23;20005;-82
2023/01/24 04:31:03;;;;;;;33.35;15.48;;;;;;;-1.45;100.00;93993.41;2569960;23;20372;-83
2023/01/24 04:32:04;;;;;;;34.05;15.98;;;;;;;-1.44;100.00;93987.09;2570453;22;20082;-82
2023/01/24 04:33:07;;;;;;;47.28;16.63;;;;;;;-1.49;100.00;93995.13;2569800;23;20011;-81
2023/01/24 04:34:08;;;;;;;34.65;16.80;;;;;;;-1.48;100.00;93989.59;2570026;23;20008;-83
2023/01/24 04:35:15;;;;;;;38.15;17.48;;;;;;;-1.41;100.00;94002.19;2570140;22;20004;-81
2023/01/24 04:36:16;;;;;;;32.75;15.88;;;;;;;-1.51;100.00;93990.22;2571091;23;20517;-82
2023/01/24 04:37:17;;;;;;;34.80;16.70;;;;;;;-1.42;100.00;93993.53;2569936;23;20028;-82
2023/01/24 04:38:18;;;;;;;35.80;17.02;;;;;;;-1.54;100.00;93999.50;2583669;22;20004;-82
2023/01/24 04:39:19;;;;;;;34.00;16.77;;;;;;;-1.51;100.00;93998.06;2583079;23;20042;-82
2023/01/24 04:40:20;;;;;;;38.60;16.48;;;;;;;-1.55;100.00;94000.56;2583245;22;20004;-83
2023/01/24 04:41:21;;;;;;;36.95;16.80;;;;;;;-1.43;100.00;93991.25;2570210;23;20001;-82
2023/01/24 04:42:23;;;;;;;36.50;15.82;;;;;;;-1.48;100.00;94002.69;2558865;23;20024;-80
2023/01/24 04:43:24;;;;;;;33.20;16.50;;;;;;;-1.41;100.00;93997.69;2558668;23;20015;-83
2023/01/24 04:44:24;;;;;;;32.50;16.55;;;;;;;-1.49;100.00;94005.63;2570410;23;20027;-80
2023/01/24 04:45:26;;;;;;;35.13;16.73;;;;;;;-1.54;100.00;94006.56;2583064;23;20011;-82
2023/01/24 04:46:28;;;;;;;33.58;16.00;;;;;;;-1.51;100.00;94000.69;2570552;23;20004;-82
2023/01/24 04:47:29;;;;;;;37.83;17.20;;;;;;;-1.41;100.00;94010.03;2570302;23;20001;-82
2023/01/24 04:48:29;;;;;;;35.65;16.63;;;;;;;-1.46;100.00;94012.84;2557521;23;20008;-83
2023/01/24 04:49:30;;;;;;;36.65;17.83;;;;;;;-1.56;100.00;94014.75;2569692;23;20000;-82
2023/01/24 04:50:33;;;;;;;36.13;17.33;;;;;;;-1.58;100.00;94014.31;2569867;23;20514;-82
2023/01/24 04:51:34;;;;;;;43.85;16.30;;;;;;;-1.43;100.00;94014.84;2570350;22;20007;-81
2023/01/24 04:52:34;;;;;;;41.63;16.73;;;;;;;-1.33;100.00;94022.34;2569483;23;20379;-82
2023/01/24 04:53:39;;;;;;;33.53;16.67;;;;;;;-1.39;100.00;94021.00;2582125;22;20035;-83
2023/01/24 04:54:40;;;;;;;33.55;15.32;;;;;;;-1.42;100.00;94014.53;2582922;22;20018;-82
2023/01/24 04:55:41;;;;;;;34.03;15.27;;;;;;;-1.25;100.00;94007.66;2582348;22;20441;-83
2023/01/24 04:56:42;;;;;;;30.83;15.57;;;;;;;-1.36;100.00;94013.28;2569803;23;20007;-81
2023/01/24 04:57:43;;;;;;;29.17;15.63;;;;;;;-1.40;100.00;94022.09;2582274;22;20004;-83
2023/01/24 04:58:44;;;;;;;30.88;15.80;;;;;;;-1.32;100.00;94019.41;2582154;23;20058;-82
2023/01/24 04:59:45;;;;;;;35.33;16.80;;;;;;;-1.43;100.00;94022.72;2582265;22;20035;-83
2023/01/24 05:00:48;;;;;;;32.17;16.95;;;;;;;-1.41;100.00;94015.28;2569491;23;20506;-82
2023/01/24 05:01:49;;;;;;;40.05;16.83;;;;;;;-1.50;100.00;94017.97;2573261;23;20063;-82
2023/01/24 05:02:51;;;;;;;32.67;16.40;;;;;;;-1.39;100.00;94018.38;2582310;23;20004;-82
2023/01/24 05:03:58;;;;;;;37.92;16.00;;;;;;;-1.39;100.00;94013.13;2569784;23;20040;-82
2023/01/24 05:05:00;;;;;;;31.77;16.50;;;;;;;-1.37;100.00;94018.81;2571940;22;20032;-82
2023/01/24 05:06:01;;;;;;;34.95;15.43;;;;;;;-1.43;100.00;94018.22;2582026;23;20000;-80
2023/01/24 05:07:02;;;;;;;32.92;15.73;;;;;;;-1.42;100.00;94024.25;2557389;23;20012;-82
2023/01/24 05:08:03;;;;;;;32.65;17.00;;;;;;;-1.54;100.00;94019.66;2582359;22;19996;-82
2023/01/24 05:09:04;;;;;;;38.78;17.55;;;;;;;-1.50;100.00;94020.56;2569352;23;20032;-83
2023/01/24 05:10:06;;;;;;;34.05;16.40;;;;;;;-1.38;100.00;94020.66;2569545;23;20012;-83
2023/01/24 05:11:07;;;;;;;36.63;16.77;;;;;;;-1.42;100.00;94019.00;2569421;22;20004;-82
2023/01/24 05:12:08;;;;;;;36.63;17.90;;;;;;;-1.49;100.00;94024.75;2569219;23;20395;-81
2023/01/24 05:13:09;;;;;;;38.45;17.63;;;;;;;-1.30;100.00;94024.34;2569554;23;20008;-82
2023/01/24 05:14:10;;;;;;;37.00;16.98;;;;;;;-1.24;100.00;94030.16;2562959;23;20048;-82
2023/01/24 05:15:11;;;;;;;34.85;17.38;;;;;;;-1.38;100.00;94023.28;2570590;22;20024;-81
2023/01/24 05:16:12;;;;;;;37.25;17.85;;;;;;;-1.39;100.00;94027.00;2573979;23;20015;-82
2023/01/24 05:17:13;;;;;;;32.70;16.23;;;;;;;-1.45;100.00;94023.00;2574647;22;20015;-82
2023/01/24 05:18:15;;;;;;;688.90;374.63;;;;;;;-1.27;100.00;94023.72;2571222;23;20008;-82
2023/01/24 05:19:16;;;;;;;271.33;121.50;;;;;;;-1.36;100.00;94017.72;2585647;22;20007;-81
2023/01/24 05:20:17;;;;;;;170.15;83.10;;;;;;;-1.33;100.00;94023.09;2571850;23;20083;-79
2023/01/24 05:21:18;;;;;;;88.43;45.20;;;;;;;-1.34;100.00;94024.19;2571468;22;20015;-82
2023/01/24 05:22:20;;;;;;;52.55;23.48;;;;;;;-1.31;100.00;94028.81;2582664;22;20014;-80
2023/01/24 05:23:21;;;;;;;39.35;18.15;;;;;;;-1.30;100.00;94019.09;2568940;23;20015;-82
2023/01/24 05:24:22;;;;;;;43.30;19.17;;;;;;;-1.23;100.00;94027.19;2556567;23;20459;-83
2023/01/24 05:25:23;;;;;;;40.53;20.55;;;;;;;-1.32;100.00;94024.66;2581338;22;20015;-82
2023/01/24 05:26:26;;;;;;;39.00;19.98;;;;;;;-1.36;100.00;94028.22;2581437;22;20008;-82
2023/01/24 05:27:27;;;;;;;39.70;20.08;;;;;;;-1.42;100.00;94022.38;2581419;23;20088;-83
2023/01/24 05:28:28;;;;;;;38.35;17.83;;;;;;;-1.41;100.00;94017.91;2556168;23;20091;-82
2023/01/24 05:29:29;;;;;;;34.25;17.50;;;;;;;-1.38;100.00;94027.78;2568840;22;20080;-82
2023/01/24 05:30:30;;;;;;;35.97;17.88;;;;;;;-1.47;100.00;94030.44;2580659;23;20588;-82
2023/01/24 05:31:31;;;;;;;34.83;16.63;;;;;;;-1.43;100.00;94033.97;2568092;23;20004;-82
2023/01/24 05:32:32;;;;;;;37.50;17.05;;;;;;;-1.50;100.00;94038.94;2555469;23;20005;-82
2023/01/24 05:33:33;;;;;;;31.65;17.33;;;;;;;-1.43;100.00;94039.22;2568188;23;20004;-81
2023/01/24 05:34:36;;;;;;;40.33;20.20;;;;;;;-1.31;100.00;94030.66;2555971;23;20303;-81
2023/01/24 05:35:39;;;;;;;36.92;18.20;;;;;;;-1.38;100.00;94030.41;2556629;23;20016;-83